Time;durP1;ratioP1;P1;durP2;ratioP2;P2;SDS_P1;SDS_P2;PMS_P1;PMS_P2;Temp;Humidity;BMP_temperature;BMP_pressure;BME280_temperature;BME280_humidity;BME280_pressure;Samples;Min_cycle;Max_cycle;Signal;HPM_P1;HPM_P2
2023/04/17 00:01:37;;;;;;;28.43;23.30;;;12.20;99.90;;;;;;5040878;28;20211;-63
2023/04/17 00:04:03;;;;;;;35.50;24.27;;;12.20;99.90;;;;;;5039712;28;20208;-64
2023/04/17 00:06:32;;;;;;;31.87;24.97;;;12.20;99.90;;;;;;5035890;28;20185;-64
2023/04/17 00:08:58;;;;;;;31.90;24.40;;;12.20;99.90;;;;;;5042785;28;20448;-64
2023/04/17 00:11:25;;;;;;;32.93;25.53;;;12.20;99.90;;;;;;5047464;28;20484;-64
2023/04/17 00:13:50;;;;;;;32.43;24.20;;;12.20;99.90;;;;;;5041827;28;20453;-64
2023/04/17 00:16:16;;;;;;;30.80;22.87;;;12.10;99.90;;;;;;5041838;28;20442;-64
2023/04/17 00:18:41;;;;;;;30.83;23.87;;;12.20;99.90;;;;;;5038369;28;20192;-64
2023/04/17 00:21:07;;;;;;;30.37;23.27;;;12.20;99.90;;;;;;5041048;28;20674;-64
2023/04/17 00:23:32;;;;;;;29.07;21.70;;;12.20;99.90;;;;;;5042892;28;20200;-64
2023/04/17 00:25:58;;;;;;;32.53;23.97;;;12.10;99.90;;;;;;5042485;28;20216;-64
2023/04/17 00:28:23;;;;;;;33.37;23.70;;;12.10;99.90;;;;;;5041445;28;20176;-64
2023/04/17 00:30:49;;;;;;;30.73;22.47;;;12.10;99.90;;;;;;5039974;28;20214;-64
2023/04/17 00:33:15;;;;;;;28.40;22.50;;;12.10;99.90;;;;;;5041447;28;20181;-64
2023/04/17 00:35:40;;;;;;;31.63;23.83;;;12.10;99.90;;;;;;5040932;28;20613;-64
2023/04/17 00:38:09;;;;;;;32.10;23.10;;;12.10;99.90;;;;;;5038047;28;20181;-64
2023/04/17 00:40:34;;;;;;;29.10;21.50;;;12.00;99.90;;;;;;5043457;28;20333;-64
2023/04/17 00:43:01;;;;;;;33.57;23.50;;;12.00;99.90;;;;;;5036749;28;20508;-64
2023/04/17 00:45:28;;;;;;;29.40;23.33;;;12.00;99.90;;;;;;5037179;28;20191;-64
2023/04/17 00:47:55;;;;;;;28.50;21.10;;;12.00;99.90;;;;;;5039660;28;20431;-64
2023/04/17 00:50:21;;;;;;;27.40;21.20;;;12.00;99.90;;;;;;5037224;28;20466;-64
2023/04/17 00:52:47;;;;;;;28.97;21.63;;;12.00;99.90;;;;;;5039655;28;20446;-64
2023/04/17 00:55:14;;;;;;;27.50;20.83;;;12.00;99.90;;;;;;5038171;28;20458;-64
2023/04/17 00:57:41;;;;;;;30.80;22.00;;;12.00;99.90;;;;;;5055986;28;20508;-64
2023/04/17 01:00:08;;;;;;;28.70;21.27;;;12.00;99.90;;;;;;5042777;28;20538;-64
2023/04/17 01:02:34;;;;;;;31.43;23.10;;;12.00;99.90;;;;;;5040449;28;20415;-64
2023/04/17 01:04:59;;;;;;;26.80;21.10;;;11.90;99.90;;;;;;5040390;28;20534;-64
2023/04/17 01:07:25;;;;;;;27.70;20.63;;;11.90;99.90;;;;;;5042473;28;20774;-64
2023/04/17 01:09:50;;;;;;;29.40;20.17;;;11.90;99.90;;;;;;5040515;28;20183;-64
2023/04/17 01:12:23;;;;;;;28.10;20.70;;;11.90;99.90;;;;;;5043912;28;20275;-64
2023/04/17 01:14:50;;;;;;;26.53;21.10;;;11.90;99.90;;;;;;5045013;28;20211;-63
2023/04/17 01:17:18;;;;;;;34.30;22.57;;;11.90;99.90;;;;;;5043154;28;20468;-63
2023/04/17 01:19:44;;;;;;;33.30;26.43;;;11.90;99.90;;;;;;5040517;28;20821;-64
2023/04/17 01:22:10;;;;;;;33.80;23.70;;;11.90;99.90;;;;;;5036340;28;20547;-64
2023/04/17 01:24:36;;;;;;;28.50;22.07;;;11.90;99.90;;;;;;5044638;28;20933;-64
2023/04/17 01:27:03;;;;;;;29.47;20.67;;;11.80;99.90;;;;;;5038947;28;20188;-64
2023/04/17 01:29:29;;;;;;;28.40;20.37;;;11.90;99.90;;;;;;5040855;28;20271;-64
2023/04/17 01:31:54;;;;;;;24.43;19.77;;;11.90;99.90;;;;;;5043167;28;20468;-64
2023/04/17 01:34:20;;;;;;;29.97;20.17;;;11.90;99.90;;;;;;5039800;28;21034;-64
2023/04/17 01:36:45;;;;;;;27.00;20.53;;;11.80;99.90;;;;;;5043210;28;20198;-64
2023/04/17 01:39:11;;;;;;;29.47;21.47;;;11.80;99.90;;;;;;5040485;28;20241;-64
2023/04/17 01:41:37;;;;;;;27.13;19.60;;;11.80;99.90;;;;;;5039206;28;20234;-64
2023/04/17 01:44:02;;;;;;;26.00;19.90;;;11.80;99.90;;;;;;5037667;28;20304;-64
2023/04/17 01:46:28;;;;;;;23.90;18.73;;;11.80;99.90;;;;;;5037889;28;20195;-64
2023/04/17 01:48:54;;;;;;;28.77;20.40;;;11.80;99.90;;;;;;5038448;28;20227;-64
2023/04/17 01:51:19;;;;;;;24.23;19.23;;;11.80;99.90;;;;;;5038447;28;20203;-64
2023/04/17 01:53:45;;;;;;;28.10;20.47;;;11.80;99.90;;;;;;5041616;28;20196;-64
2023/04/17 01:56:12;;;;;;;25.20;19.70;;;11.80;99.90;;;;;;5038620;28;20187;-64
2023/04/17 01:58:38;;;;;;;25.63;19.23;;;11.70;99.90;;;;;;5039405;28;20198;-64
2023/04/17 02:01:04;;;;;;;27.93;19.37;;;11.70;99.90;;;;;;5040725;28;20512;-64
2023/04/17 02:03:30;;;;;;;25.20;19.63;;;11.70;99.90;;;;;;5039245;28;20469;-64
2023/04/17 02:05:56;;;;;;;25.47;18.60;;;11.70;99.90;;;;;;5039026;28;20442;-64
2023/04/17 02:08:22;;;;;;;26.93;19.13;;;11.70;99.90;;;;;;5042775;28;20464;-64
2023/04/17 02:10:48;;;;;;;24.20;18.90;;;11.70;99.90;;;;;;5039278;28;20207;-64
2023/04/17 02:13:13;;;;;;;27.37;19.60;;;11.70;99.90;;;;;;5040813;28;20450;-64
2023/04/17 02:15:39;;;;;;;26.40;18.30;;;11.70;99.90;;;;;;5039916;28;20257;-64
2023/04/17 02:18:05;;;;;;;26.97;20.67;;;11.70;99.90;;;;;;5037092;28;20190;-64
2023/04/17 02:20:31;;;;;;;24.47;19.67;;;11.70;99.90;;;;;;5040647;28;20254;-64
2023/04/17 02:22:59;;;;;;;25.87;20.13;;;11.70;99.90;;;;;;5040169;28;20235;-64
2023/04/17 02:25:24;;;;;;;26.83;19.40;;;11.70;99.90;;;;;;5040572;28;20470;-64
2023/04/17 02:27:50;;;;;;;28.40;19.73;;;11.70;99.90;;;;;;5036173;28;20480;-64
2023/04/17 02:30:16;;;;;;;26.87;19.60;;;11.60;99.90;;;;;;5038412;28;20664;-64
2023/04/17 02:32:41;;;;;;;26.53;19.83;;;11.60;99.90;;;;;;5033107;28;20578;-64
2023/04/17 02:35:07;;;;;;;27.67;20.80;;;11.60;99.90;;;;;;5038246;28;20184;-64
2023/04/17 02:37:33;;;;;;;27.80;19.57;;;11.60;99.90;;;;;;5036881;28;20187;-64
2023/04/17 02:39:58;;;;;;;28.13;19.73;;;11.60;99.90;;;;;;5040828;28;20588;-64
2023/04/17 02:42:24;;;;;;;24.73;19.10;;;11.60;99.90;;;;;;5040417;28;20188;-64
2023/04/17 02:44:49;;;;;;;25.97;20.73;;;11.60;99.90;;;;;;5040205;28;20215;-64
2023/04/17 02:47:15;;;;;;;31.07;20.93;;;11.60;99.90;;;;;;5035746;28;20176;-64
2023/04/17 02:49:40;;;;;;;24.40;18.90;;;11.60;99.90;;;;;;5033596;28;20245;-64
2023/04/17 02:52:06;;;;;;;25.77;19.43;;;11.60;99.90;;;;;;5037093;28;20195;-64
2023/04/17 02:54:32;;;;;;;34.17;21.97;;;11.60;99.90;;;;;;5038576;28;20237;-64
2023/04/17 02:56:57;;;;;;;28.37;20.20;;;11.60;99.90;;;;;;5039613;28;20661;-64
2023/04/17 02:59:26;;;;;;;30.63;20.90;;;11.60;99.90;;;;;;5034636;28;20191;-64
2023/04/17 03:01:52;;;;;;;31.10;22.17;;;11.60;99.90;;;;;;5033630;28;20218;-64
2023/04/17 03:04:18;;;;;;;31.20;21.63;;;11.60;99.90;;;;;;5037535;28;20465;-64
2023/04/17 03:06:43;;;;;;;30.27;21.20;;;11.60;99.90;;;;;;5037607;28;20191;-64
2023/04/17 03:09:11;;;;;;;31.17;20.57;;;11.60;99.90;;;;;;5039897;28;20258;-64
2023/04/17 03:11:37;;;;;;;30.93;21.70;;;11.60;99.90;;;;;;5038591;28;20200;-64
2023/04/17 03:14:02;;;;;;;26.20;20.47;;;11.60;99.90;;;;;;5040296;28;20874;-64
2023/04/17 03:16:28;;;;;;;27.97;20.93;;;11.60;99.90;;;;;;5036471;28;20465;-64
2023/04/17 03:18:54;;;;;;;32.00;23.33;;;11.60;99.90;;;;;;5039023;28;20234;-64
2023/04/17 03:21:20;;;;;;;30.93;22.57;;;11.60;99.90;;;;;;5038294;28;20554;-64
2023/04/17 03:23:45;;;;;;;30.77;21.57;;;11.60;99.90;;;;;;5039343;28;20211;-64
2023/04/17 03:26:11;;;;;;;28.17;21.30;;;11.60;99.90;;;;;;5038805;28;20442;-64
2023/04/17 03:28:36;;;;;;;28.63;21.27;;;11.60;99.90;;;;;;5037170;28;20641;-64
2023/04/17 03:31:02;;;;;;;27.20;20.10;;;11.50;99.90;;;;;;5038327;28;20200;-64
2023/04/17 03:33:27;;;;;;;29.17;21.30;;;11.50;99.90;;;;;;5039596;28;20187;-64
2023/04/17 03:35:53;;;;;;;28.27;20.60;;;11.50;99.90;;;;;;5037248;28;20191;-64
2023/04/17 03:38:18;;;;;;;37.33;23.37;;;11.50;99.90;;;;;;5037427;28;20603;-64
2023/04/17 03:40:44;;;;;;;25.03;20.20;;;11.50;99.90;;;;;;5041320;28;20199;-64
2023/04/17 03:43:10;;;;;;;28.67;21.40;;;11.50;99.90;;;;;;5042314;28;20235;-64
2023/04/17 03:45:35;;;;;;;28.80;20.57;;;11.50;99.90;;;;;;5040799;28;20179;-63
2023/04/17 03:48:01;;;;;;;29.07;20.00;;;11.50;99.90;;;;;;5041337;28;20255;-64
2023/04/17 03:50:27;;;;;;;27.73;21.60;;;11.50;99.90;;;;;;5038846;28;20461;-64
2023/04/17 03:52:52;;;;;;;27.87;20.80;;;11.50;99.90;;;;;;5038808;28;20274;-64
2023/04/17 03:55:18;;;;;;;33.67;21.80;;;11.50;99.90;;;;;;5041527;28;20180;-64
2023/04/17 03:57:44;;;;;;;30.20;19.73;;;11.50;99.90;;;;;;5041845;28;20282;-64
2023/04/17 04:00:11;;;;;;;28.80;22.30;;;11.50;99.90;;;;;;5039591;28;20209;-64
2023/04/17 04:02:36;;;;;;;27.03;20.70;;;11.50;99.90;;;;;;5040696;28;20487;-64
2023/04/17 04:05:02;;;;;;;28.53;21.17;;;11.50;99.90;;;;;;5039630;28;20519;-64
2023/04/17 04:07:28;;;;;;;36.30;23.10;;;11.50;99.90;;;;;;5043783;28;20272;-64
2023/04/17 04:09:54;;;;;;;29.23;22.40;;;11.50;99.90;;;;;;5040162;28;20663;-64
2023/04/17 04:12:21;;;;;;;31.60;21.73;;;11.50;99.90;;;;;;5047842;28;20187;-64
2023/04/17 04:14:47;;;;;;;28.10;21.20;;;11.50;99.90;;;;;;5051229;28;20438;-64
2023/04/17 04:17:13;;;;;;;26.70;20.63;;;11.50;99.90;;;;;;5038732;28;20445;-64
2023/04/17 04:19:39;;;;;;;25.57;21.13;;;11.50;99.90;;;;;;5034703;28;20249;-64
2023/04/17 04:22:04;;;;;;;28.37;21.03;;;11.50;99.90;;;;;;5040782;28;20184;-64
2023/04/17 04:24:30;;;;;;;22.83;18.17;;;11.50;99.90;;;;;;5042038;28;20654;-71
2023/04/17 04:27:01;;;;;;;25.80;19.60;;;11.50;99.90;;;;;;5041514;28;20191;-64
2023/04/17 04:29:26;;;;;;;23.80;19.23;;;11.50;99.90;;;;;;5036714;28;20464;-64
2023/04/17 04:31:52;;;;;;;27.47;20.03;;;11.50;99.90;;;;;;5041266;28;20454;-64
2023/04/17 04:34:17;;;;;;;26.03;19.57;;;11.50;99.90;;;;;;5041127;28;20184;-64
2023/04/17 04:36:48;;;;;;;26.43;20.33;;;11.50;99.90;;;;;;5041047;28;20945;-64
2023/04/17 04:39:20;;;;;;;26.40;20.80;;;11.50;99.90;;;;;;5039025;28;20187;-64
2023/04/17 04:41:46;;;;;;;28.53;18.83;;;11.50;99.90;;;;;;5041071;28;20547;-64
2023/04/17 04:44:12;;;;;;;26.20;21.03;;;11.50;99.90;;;;;;5052172;28;20473;-64
2023/04/17 04:46:38;;;;;;;25.97;19.80;;;11.50;99.90;;;;;;5036639;28;20434;-64
2023/04/17 04:49:03;;;;;;;28.30;20.00;;;11.50;99.90;;;;;;5038899;28;20184;-64
2023/04/17 04:51:30;;;;;;;26.57;19.80;;;11.50;99.90;;;;;;5041183;28;20204;-64
2023/04/17 04:53:56;;;;;;;26.73;18.23;;;11.50;99.90;;;;;;5038888;28;20626;-64
2023/04/17 04:56:21;;;;;;;27.30;20.40;;;11.50;99.90;;;;;;5040905;28;20897;-64
2023/04/17 04:58:47;;;;;;;25.60;19.63;;;11.50;99.90;;;;;;5043380;28;20254;-64
2023/04/17 05:01:12;;;;;;;27.30;19.67;;;11.50;99.90;;;;;;5057605;28;20208;-64
2023/04/17 05:03:39;;;;;;;28.13;20.57;;;11.60;99.90;;;;;;5042657;28;20686;-64
2023/04/17 05:06:05;;;;;;;26.60;19.83;;;11.60;99.90;;;;;;5043529;28;20208;-64
2023/04/17 05:08:31;;;;;;;26.30;20.20;;;11.60;99.90;;;;;;5045862;28;20997;-64
2023/04/17 05:10:57;;;;;;;32.40;19.90;;;11.60;99.90;;;;;;5043660;28;20261;-64
2023/04/17 05:13:23;;;;;;;29.57;21.20;;;11.60;99.90;;;;;;5045698;28;20446;-64
2023/04/17 05:15:48;;;;;;;27.30;19.77;;;11.60;99.90;;;;;;5043963;28;20250;-64
2023/04/17 05:18:14;;;;;;;28.73;20.90;;;11.60;99.90;;;;;;5039041;28;20698;-64
2023/04/17 05:20:40;;;;;;;27.37;21.40;;;11.60;99.90;;;;;;5040686;28;20216;-64
2023/04/17 05:23:05;;;;;;;27.87;21.10;;;11.60;99.90;;;;;;5054205;28;20216;-64
2023/04/17 05:25:31;;;;;;;27.93;20.67;;;11.60;99.90;;;;;;5037247;28;20258;-64
2023/04/17 05:27:56;;;;;;;29.47;20.90;;;11.60;99.90;;;;;;5036652;28;20183;-64
2023/04/17 05:30:22;;;;;;;28.97;21.77;;;11.60;99.90;;;;;;5038036;28;20677;-64
2023/04/17 05:32:47;;;;;;;26.03;19.30;;;11.60;99.90;;;;;;5038415;28;20192;-64
2023/04/17 05:35:13;;;;;;;27.73;21.10;;;11.60;99.90;;;;;;5038311;28;21317;-65
2023/04/17 05:37:39;;;;;;;27.50;20.83;;;11.70;99.90;;;;;;5041068;28;20180;-63
2023/04/17 05:40:05;;;;;;;33.33;21.50;;;11.70;99.90;;;;;;5036297;28;20211;-63
2023/04/17 05:42:33;;;;;;;24.53;19.67;;;11.70;99.90;;;;;;5041057;28;20705;-63
2023/04/17 05:44:58;;;;;;;30.17;22.23;;;11.70;99.90;;;;;;5037791;28;21142;-64
2023/04/17 05:47:24;;;;;;;27.83;20.63;;;11.70;99.90;;;;;;5039930;28;20562;-64
2023/04/17 05:49:51;;;;;;;27.70;20.77;;;11.70;99.90;;;;;;5038388;28;20188;-64
2023/04/17 05:52:17;;;;;;;26.47;20.87;;;11.80;99.90;;;;;;5037866;28;20191;-64
2023/04/17 05:54:43;;;;;;;26.53;21.20;;;11.80;99.90;;;;;;5039826;28;20931;-64
2023/04/17 05:57:08;;;;;;;28.67;20.87;;;11.80;99.90;;;;;;5039485;28;20196;-64
2023/04/17 05:59:34;;;;;;;24.60;20.50;;;11.70;99.90;;;;;;5039497;28;20188;-64
2023/04/17 06:01:59;;;;;;;25.77;20.00;;;11.70;99.90;;;;;;5033231;28;20604;-64
2023/04/17 06:04:25;;;;;;;27.73;19.60;;;11.70;99.90;;;;;;5038406;28;20776;-64
2023/04/17 06:06:50;;;;;;;24.93;18.60;;;11.80;99.90;;;;;;5038958;28;20539;-64
2023/04/17 06:09:16;;;;;;;25.80;21.10;;;11.80;99.90;;;;;;5039207;28;20307;-64
2023/04/17 06:11:42;;;;;;;25.20;18.70;;;11.80;99.90;;;;;;5039524;28;20703;-64
2023/04/17 06:14:07;;;;;;;26.20;19.70;;;11.80;99.90;;;;;;5041581;28;20197;-64
2023/04/17 06:16:33;;;;;;;25.40;20.00;;;11.90;99.90;;;;;;5038447;28;20198;-64
2023/04/17 06:18:58;;;;;;;26.00;20.13;;;11.90;99.90;;;;;;5036301;28;20567;-64
2023/04/17 06:21:24;;;;;;;25.67;19.67;;;11.90;99.90;;;;;;5035484;28;20200;-64
2023/04/17 06:23:50;;;;;;;27.03;19.73;;;11.90;99.90;;;;;;5040272;28;20561;-64
2023/04/17 06:26:16;;;;;;;25.07;18.70;;;11.90;99.90;;;;;;5037967;28;20435;-64
2023/04/17 06:28:42;;;;;;;26.47;18.83;;;12.00;99.90;;;;;;5038371;28;20658;-64
2023/04/17 06:31:07;;;;;;;24.93;18.80;;;12.00;99.90;;;;;;5038555;28;20210;-64
2023/04/17 06:33:33;;;;;;;28.70;19.53;;;12.10;99.90;;;;;;5042308;28;20210;-64
2023/04/17 06:35:58;;;;;;;26.50;18.87;;;12.10;99.90;;;;;;5037461;28;20198;-64
2023/04/17 06:38:24;;;;;;;26.00;19.87;;;12.20;99.90;;;;;;5038944;28;20219;-64
2023/04/17 06:40:49;;;;;;;25.10;18.60;;;12.20;99.90;;;;;;5032294;28;20211;-65
2023/04/17 06:43:15;;;;;;;36.93;25.10;;;12.20;99.90;;;;;;5040862;28;20703;-65
2023/04/17 06:45:41;;;;;;;24.80;20.63;;;12.30;99.90;;;;;;5038324;28;20623;-64
2023/04/17 06:48:07;;;;;;;30.40;20.50;;;12.30;99.90;;;;;;5034415;28;20634;-64
2023/04/17 06:50:33;;;;;;;32.20;19.83;;;12.30;99.90;;;;;;5037827;28;20481;-65
2023/04/17 06:52:58;;;;;;;25.23;19.10;;;12.40;99.90;;;;;;5036524;28;20181;-65
2023/04/17 06:55:26;;;;;;;27.50;19.10;;;12.40;99.90;;;;;;5037117;28;20919;-65
2023/04/17 06:57:53;;;;;;;23.10;18.73;;;12.50;99.90;;;;;;5037256;28;20187;-65
2023/04/17 07:00:19;;;;;;;24.90;19.50;;;12.50;99.90;;;;;;5037477;28;20963;-65
2023/04/17 07:02:45;;;;;;;25.03;17.40;;;12.50;99.90;;;;;;5032517;28;20426;-64
2023/04/17 07:05:11;;;;;;;24.17;18.57;;;12.50;99.90;;;;;;5036430;28;20847;-65
2023/04/17 07:07:36;;;;;;;24.17;18.67;;;12.40;99.90;;;;;;5026449;28;20230;-66
2023/04/17 07:10:03;;;;;;;22.80;17.97;;;12.50;99.90;;;;;;5031167;28;21066;-66
2023/04/17 07:12:29;;;;;;;28.17;21.60;;;12.40;99.90;;;;;;5036709;28;20190;-67
2023/04/17 07:14:54;;;;;;;26.90;20.87;;;12.50;99.90;;;;;;5038385;28;20419;-67
2023/04/17 07:17:20;;;;;;;26.40;19.40;;;12.50;99.90;;;;;;5039458;28;20661;-66
2023/04/17 07:19:45;;;;;;;23.70;19.33;;;12.50;99.90;;;;;;5036254;28;20184;-64
2023/04/17 07:22:11;;;;;;;25.80;19.30;;;12.50;99.90;;;;;;5044058;28;20207;-66
2023/04/17 07:24:36;;;;;;;26.80;19.90;;;12.60;99.90;;;;;;5038028;28;20204;-65
2023/04/17 07:27:02;;;;;;;20.80;17.87;;;12.60;99.90;;;;;;5044219;28;20673;-66
2023/04/17 07:32:06;;;;;;;27.17;22.20;;;12.70;99.90;;;;;;5068712;22;20863;-66
2023/04/17 07:34:33;;;;;;;24.50;20.20;;;12.80;99.90;;;;;;5058726;28;20446;-66
2023/04/17 07:36:59;;;;;;;25.57;20.00;;;12.90;99.90;;;;;;5057015;28;20438;-65
2023/04/17 07:39:27;;;;;;;29.23;21.03;;;13.00;99.90;;;;;;5055938;28;20455;-65
2023/04/17 07:42:05;;;;;;;24.10;18.33;;;13.10;99.90;;;;;;5086389;28;20465;-67
2023/04/17 07:44:31;;;;;;;28.00;18.43;;;13.20;99.90;;;;;;5101410;28;20459;-68
2023/04/17 07:46:57;;;;;;;25.70;19.77;;;13.20;99.90;;;;;;5088447;28;20563;-67
2023/04/17 07:49:23;;;;;;;24.67;19.37;;;13.30;99.90;;;;;;5092277;28;20845;-69
2023/04/17 07:51:48;;;;;;;25.23;18.77;;;13.30;99.90;;;;;;5088876;28;20699;-68
2023/04/17 07:54:16;;;;;;;24.87;18.67;;;13.30;99.90;;;;;;5089131;28;20202;-68
2023/04/17 07:56:45;;;;;;;22.90;17.57;;;13.30;99.90;;;;;;5093438;28;20194;-66
2023/04/17 07:59:11;;;;;;;22.10;17.73;;;13.40;99.90;;;;;;5079087;28;20480;-65
2023/04/17 08:01:39;;;;;;;20.30;16.77;;;13.50;99.90;;;;;;5077445;28;20472;-65
2023/04/17 08:04:05;;;;;;;22.20;17.47;;;13.60;99.90;;;;;;5072008;28;20463;-67
2023/04/17 08:06:31;;;;;;;20.00;17.03;;;13.70;99.90;;;;;;5099896;28;20418;-68
2023/04/17 08:08:58;;;;;;;25.10;19.90;;;13.70;99.90;;;;;;5076094;28;20179;-69
2023/04/17 08:11:24;;;;;;;23.80;16.70;;;13.80;99.90;;;;;;5086554;28;20194;-66
2023/04/17 08:13:50;;;;;;;21.60;17.00;;;13.90;99.90;;;;;;5065033;28;20966;-66
2023/04/17 08:16:15;;;;;;;23.13;17.07;;;13.90;99.90;;;;;;5072332;28;20672;-66
2023/04/17 08:18:41;;;;;;;19.67;16.60;;;14.00;99.90;;;;;;5074899;28;20198;-64
2023/04/17 08:21:07;;;;;;;18.97;16.13;;;14.00;99.90;;;;;;5070359;28;20323;-64
2023/04/17 08:23:33;;;;;;;22.10;17.13;;;14.00;99.90;;;;;;5070108;28;20757;-67
2023/04/17 08:26:01;;;;;;;18.47;16.00;;;14.00;99.90;;;;;;5084284;28;20464;-66
2023/04/17 08:28:27;;;;;;;18.73;16.10;;;14.00;99.90;;;;;;5068181;28;20171;-66
2023/04/17 08:30:53;;;;;;;21.40;16.03;;;14.00;99.90;;;;;;5083742;28;20483;-64
2023/04/17 08:33:19;;;;;;;17.37;14.70;;;14.00;99.90;;;;;;5084578;28;20442;-65
2023/04/17 08:35:45;;;;;;;18.30;15.50;;;13.90;99.90;;;;;;5065390;28;20195;-65
2023/04/17 08:38:12;;;;;;;17.80;14.27;;;13.90;99.90;;;;;;5070198;28;20429;-66
2023/04/17 08:40:41;;;;;;;17.23;14.50;;;13.90;99.90;;;;;;5094563;28;20198;-66
2023/04/17 08:43:14;;;;;;;18.10;14.50;;;13.90;99.90;;;;;;5081981;28;20504;-65
2023/04/17 08:45:55;;;;;;;17.83;14.47;;;13.90;99.90;;;;;;5065943;28;20444;-65
2023/04/17 08:48:22;;;;;;;17.00;14.97;;;13.90;99.90;;;;;;5062812;28;20424;-65
2023/04/17 08:51:24;;;;;;;20.77;17.60;;;13.90;99.90;;;;;;5162774;22;21247;-64
2023/04/17 08:53:51;;;;;;;19.30;15.80;;;13.80;99.90;;;;;;5025969;28;20449;-65
2023/04/17 08:56:16;;;;;;;19.73;15.80;;;13.90;99.90;;;;;;5047483;28;20434;-65
2023/04/17 08:58:42;;;;;;;18.90;16.13;;;13.90;99.90;;;;;;5030109;28;20973;-65
2023/04/17 09:01:17;;;;;;;20.23;15.47;;;13.90;99.90;;;;;;5034563;28;20235;-65
2023/04/17 09:03:48;;;;;;;20.30;15.70;;;13.90;99.90;;;;;;5026250;28;20608;-66
2023/04/17 09:06:14;;;;;;;17.80;14.70;;;14.00;99.90;;;;;;5032535;28;21628;-66
2023/04/17 09:09:06;;;;;;;16.33;13.97;;;14.00;99.90;;;;;;5022494;28;20435;-66
2023/04/17 09:11:35;;;;;;;15.73;13.40;;;14.00;99.90;;;;;;5014323;28;20489;-67
2023/04/17 09:14:01;;;;;;;17.87;14.80;;;14.00;99.90;;;;;;5030051;28;20439;-66
2023/04/17 09:16:27;;;;;;;15.10;13.43;;;14.00;99.90;;;;;;5035091;28;20462;-67
2023/04/17 09:19:11;;;;;;;16.77;14.87;;;14.10;99.90;;;;;;5017942;28;20195;-67
2023/04/17 09:21:36;;;;;;;18.93;13.40;;;14.20;99.90;;;;;;5028943;28;20464;-64
2023/04/17 09:24:04;;;;;;;15.83;12.27;;;14.30;99.90;;;;;;5015677;28;20466;-65
2023/04/17 09:26:34;;;;;;;15.10;11.63;;;14.40;99.90;;;;;;5016356;28;20184;-67
2023/04/17 09:29:21;;;;;;;15.20;10.43;;;14.50;99.90;;;;;;5010435;28;20523;-67
2023/04/17 09:31:47;;;;;;;15.83;12.60;;;14.60;99.90;;;;;;5026250;28;20526;-66
2023/04/17 09:34:15;;;;;;;16.10;11.67;;;14.60;99.90;;;;;;5019515;28;20432;-66
2023/04/17 09:36:42;;;;;;;12.83;10.20;;;14.60;99.90;;;;;;5033763;28;20957;-67
2023/04/17 09:39:20;;;;;;;11.67;10.47;;;14.60;99.90;;;;;;5028252;28;20454;-66
2023/04/17 09:41:46;;;;;;;12.57;10.77;;;14.60;99.90;;;;;;5026860;28;20459;-66
2023/04/17 09:44:24;;;;;;;11.43;9.73;;;14.60;99.90;;;;;;5030398;28;20455;-66
2023/04/17 09:46:52;;;;;;;12.03;10.50;;;14.60;99.90;;;;;;5025302;28;20440;-65
2023/04/17 09:49:48;;;;;;;16.03;10.83;;;14.70;99.90;;;;;;5013002;28;20439;-65
2023/04/17 09:52:14;;;;;;;13.93;10.53;;;14.70;99.90;;;;;;5016391;28;20475;-67
2023/04/17 09:54:43;;;;;;;9.90;8.90;;;14.80;99.90;;;;;;5031795;28;20447;-67
2023/04/17 09:57:09;;;;;;;10.90;9.27;;;14.80;99.90;;;;;;5015791;28;20450;-67
2023/04/17 09:59:48;;;;;;;11.67;9.70;;;14.90;99.90;;;;;;5032960;28;20475;-67
2023/04/17 10:02:19;;;;;;;13.83;10.03;;;14.90;99.90;;;;;;5032700;28;20435;-68
2023/04/17 10:04:46;;;;;;;10.00;8.73;;;15.10;99.90;;;;;;5038551;28;20482;-69
2023/04/17 10:07:16;;;;;;;9.23;8.20;;;15.20;99.90;;;;;;5016140;28;20865;-67
2023/04/17 10:09:44;;;;;;;11.23;8.70;;;15.30;99.90;;;;;;5014960;28;20570;-67
2023/04/17 10:12:17;;;;;;;12.53;8.97;;;15.50;99.90;;;;;;5032930;28;20416;-67
2023/04/17 10:14:46;;;;;;;11.70;10.27;;;15.60;99.90;;;;;;5028421;28;20556;-67
2023/04/17 10:17:36;;;;;;;8.97;7.70;;;15.70;99.90;;;;;;5033166;28;20585;-67
2023/04/17 10:20:19;;;;;;;9.77;8.63;;;15.80;99.90;;;;;;5032496;28;20466;-67
2023/04/17 10:22:52;;;;;;;8.43;7.47;;;15.90;99.90;;;;;;5030847;28;20664;-67
2023/04/17 10:25:22;;;;;;;8.23;7.40;;;16.00;99.90;;;;;;5013888;28;20438;-68
2023/04/17 10:27:54;;;;;;;10.17;8.20;;;16.00;99.90;;;;;;5034186;28;20428;-67
2023/04/17 10:30:26;;;;;;;11.13;8.33;;;16.00;99.90;;;;;;5028875;28;20447;-65
2023/04/17 10:33:18;;;;;;;8.53;7.67;;;16.00;99.90;;;;;;5016611;28;20437;-66
2023/04/17 10:36:18;;;;;;;8.60;7.77;;;15.90;99.90;;;;;;5034503;28;20664;-67
2023/04/17 10:38:45;;;;;;;9.37;7.80;;;15.90;99.90;;;;;;5012254;28;20447;-67
2023/04/17 10:41:14;;;;;;;8.40;7.50;;;15.90;99.90;;;;;;5061697;23;20648;-68
2023/04/17 10:43:42;;;;;;;9.97;8.30;;;15.90;99.90;;;;;;5055717;28;20493;-68
2023/04/17 10:46:11;;;;;;;8.97;7.37;;;16.10;99.90;;;;;;5068768;28;20725;-67
2023/04/17 10:48:49;;;;;;;8.70;6.20;;;16.20;99.90;;;;;;5047957;28;20553;-66
2023/04/17 10:51:27;;;;;;;7.70;6.93;;;16.30;99.90;;;;;;5049382;28;20470;-68
2023/04/17 10:54:01;;;;;;;8.00;6.80;;;16.30;99.90;;;;;;5049557;28;20438;-67
2023/04/17 10:56:36;;;;;;;7.63;6.83;;;16.20;99.90;;;;;;5055240;28;21226;-67
2023/04/17 10:59:16;;;;;;;9.70;7.37;;;16.20;99.90;;;;;;5071443;28;20441;-67
2023/04/17 11:01:52;;;;;;;7.63;6.80;;;16.10;99.90;;;;;;5059133;28;20483;-67
2023/04/17 11:04:45;;;;;;;7.97;7.17;;;15.90;99.90;;;;;;5050484;28;20560;-67
2023/04/17 11:07:16;;;;;;;9.40;7.13;;;15.80;99.90;;;;;;5041555;28;20435;-67
2023/04/17 11:09:51;;;;;;;13.93;7.53;;;15.70;99.90;;;;;;5059411;28;20448;-67
2023/04/17 11:12:20;;;;;;;9.07;6.70;;;15.70;99.90;;;;;;5052910;28;20441;-67
2023/04/17 11:14:46;;;;;;;8.27;7.47;;;15.80;99.90;;;;;;5055140;28;20440;-66
2023/04/17 11:17:13;;;;;;;9.03;8.10;;;15.90;99.90;;;;;;5035913;28;20567;-66
2023/04/17 11:19:40;;;;;;;14.03;12.53;;;15.90;99.90;;;;;;5037615;28;20190;-67
2023/04/17 11:22:09;;;;;;;10.13;9.13;;;16.00;99.90;;;;;;5035866;28;20436;-67
2023/04/17 11:24:34;;;;;;;9.43;8.53;;;16.10;99.90;;;;;;5042281;28;20449;-66
2023/04/17 11:27:09;;;;;;;8.40;7.00;;;16.10;99.90;;;;;;5039249;28;20962;-67
2023/04/17 11:34:40;;;;;;;7.80;6.30;;;16.00;99.90;;;;;;4766315;26;20521;-67
2023/04/17 11:37:06;;;;;;;11.10;6.37;;;15.90;99.90;;;;;;5013633;28;20471;-66
2023/04/17 11:39:33;;;;;;;7.43;5.80;;;15.90;99.90;;;;;;5017350;28;20193;-66
2023/04/17 11:42:01;;;;;;;6.87;6.17;;;15.80;99.90;;;;;;5011680;28;20283;-66
2023/04/17 11:44:28;;;;;;;6.90;6.20;;;15.70;99.90;;;;;;5019320;28;20470;-66
2023/04/17 11:46:57;;;;;;;7.80;7.00;;;15.60;99.90;;;;;;5001108;28;20442;-66
2023/04/17 11:49:36;;;;;;;6.87;5.93;;;15.60;99.90;;;;;;5017000;28;20447;-66
2023/04/17 11:52:03;;;;;;;6.87;6.17;;;15.60;99.90;;;;;;5015123;28;20447;-66
2023/04/17 11:54:33;;;;;;;7.53;6.47;;;15.60;99.90;;;;;;5011793;28;21341;-67
2023/04/17 11:57:12;;;;;;;9.70;6.67;;;15.60;99.90;;;;;;5014604;28;20440;-65
2023/04/17 11:59:40;;;;;;;8.83;7.07;;;15.60;99.90;;;;;;5015523;28;20451;-66
2023/04/17 12:02:07;;;;;;;7.03;5.93;;;15.60;99.90;;;;;;5015979;28;20485;-66
2023/04/17 12:04:35;;;;;;;6.90;6.30;;;15.70;99.90;;;;;;5015425;28;20574;-67
2023/04/17 12:07:02;;;;;;;5.53;5.03;;;15.80;99.90;;;;;;5016645;28;20866;-66
2023/04/17 12:09:30;;;;;;;6.20;5.60;;;15.90;99.90;;;;;;5018485;28;20486;-66
2023/04/17 12:11:57;;;;;;;7.87;5.20;;;16.00;99.90;;;;;;5020116;28;20513;-67
2023/04/17 12:14:23;;;;;;;6.73;6.13;;;16.20;99.90;;;;;;5019362;28;20932;-67
2023/04/17 12:16:50;;;;;;;6.60;5.90;;;16.30;99.90;;;;;;5021426;28;22351;-66
2023/04/17 12:19:16;;;;;;;5.63;5.03;;;16.50;99.90;;;;;;5021463;28;20449;-66
2023/04/17 12:21:42;;;;;;;7.30;6.37;;;16.60;99.90;;;;;;5018022;28;20471;-66
2023/04/17 12:24:09;;;;;;;5.87;5.23;;;16.70;99.90;;;;;;5014915;28;20541;-66
2023/04/17 12:26:35;;;;;;;6.50;5.90;;;16.80;99.90;;;;;;5020173;28;20246;-66
2023/04/17 12:29:00;;;;;;;7.13;6.43;;;16.90;99.90;;;;;;5012658;28;20431;-66
2023/04/17 12:31:26;;;;;;;7.13;6.47;;;16.90;99.90;;;;;;5016685;28;20210;-66
2023/04/17 12:33:51;;;;;;;9.03;6.53;;;16.80;99.90;;;;;;5018396;28;20310;-66
2023/04/17 12:36:17;;;;;;;10.07;6.70;;;16.80;99.90;;;;;;5019226;28;21841;-67
2023/04/17 12:38:43;;;;;;;6.67;6.03;;;16.80;99.90;;;;;;5020520;28;20197;-66
2023/04/17 12:41:09;;;;;;;7.17;6.47;;;16.70;99.90;;;;;;5015604;28;20467;-66